Time;durP1;ratioP1;P1;durP2;ratioP2;P2;SDS_P1;SDS_P2;PMS_P1;PMS_P2;Temp;Humidity;BMP_temperature;BMP_pressure;BME280_temperature;BME280_humidity;BME280_pressure;Samples;Min_cycle;Max_cycle;Signal;HPM_P1;HPM_P2
2021/01/05 00:00:08;;;;;;;39.05;18.80;;;3.20;99.90;;;;;;5074359;28;20580;-72
2021/01/05 00:02:34;;;;;;;40.78;17.70;;;3.10;99.90;;;;;;5064664;28;20462;-72
2021/01/05 00:04:59;;;;;;;41.40;16.55;;;3.20;99.90;;;;;;5054907;28;20021;-72
2021/01/05 00:07:24;;;;;;;37.53;16.90;;;3.20;99.90;;;;;;5064496;28;20028;-72
2021/01/05 00:09:50;;;;;;;39.40;18.48;;;3.20;99.90;;;;;;5074551;28;20533;-72
2021/01/05 00:12:16;;;;;;;39.88;18.50;;;3.30;99.90;;;;;;5057469;28;20109;-72
2021/01/05 00:14:44;;;;;;;33.97;16.63;;;3.20;99.90;;;;;;5052781;28;20140;-72
2021/01/05 00:17:11;;;;;;;32.92;17.00;;;3.20;99.90;;;;;;5070538;28;20029;-72
2021/01/05 00:19:37;;;;;;;36.10;17.40;;;3.20;99.90;;;;;;5074418;28;20023;-72
2021/01/05 00:22:03;;;;;;;36.53;17.40;;;3.20;99.90;;;;;;5070630;28;20033;-72
2021/01/05 00:24:28;;;;;;;37.50;17.48;;;3.20;99.90;;;;;;5072581;28;20033;-72
2021/01/05 00:26:54;;;;;;;33.13;16.05;;;3.20;99.90;;;;;;5075434;28;20513;-71
2021/01/05 00:29:20;;;;;;;37.38;16.20;;;3.20;99.90;;;;;;5054309;28;20017;-73
2021/01/05 00:31:45;;;;;;;33.28;16.17;;;3.30;99.90;;;;;;5053281;28;20064;-73
2021/01/05 00:34:11;;;;;;;34.53;15.45;;;3.20;99.90;;;;;;5072367;28;20381;-74
2021/01/05 00:36:37;;;;;;;31.52;15.15;;;3.20;99.90;;;;;;5057871;28;20115;-73
2021/01/05 00:39:04;;;;;;;33.42;15.38;;;3.20;99.90;;;;;;5053248;28;20032;-73
2021/01/05 00:41:30;;;;;;;35.28;15.50;;;3.20;99.90;;;;;;5053213;28;20037;-73
2021/01/05 00:43:55;;;;;;;34.22;15.30;;;3.20;99.90;;;;;;5069441;28;20507;-72
2021/01/05 00:46:21;;;;;;;29.80;14.48;;;3.20;99.90;;;;;;5073524;28;20059;-72
2021/01/05 00:48:47;;;;;;;27.73;14.65;;;3.30;99.90;;;;;;5055013;28;20022;-72
2021/01/05 00:51:14;;;;;;;32.58;14.68;;;3.30;99.90;;;;;;5053365;28;20473;-72
2021/01/05 00:53:39;;;;;;;31.13;16.63;;;3.30;99.90;;;;;;5067089;28;20067;-72
2021/01/05 00:56:06;;;;;;;28.73;15.77;;;3.30;99.90;;;;;;5068803;28;20473;-72
2021/01/05 00:58:31;;;;;;;29.00;13.70;;;3.30;99.90;;;;;;5053379;28;20056;-72
2021/01/05 01:00:57;;;;;;;27.02;13.95;;;3.30;99.90;;;;;;5053486;28;20127;-73
2021/01/05 01:03:24;;;;;;;31.20;15.70;;;3.30;99.90;;;;;;5064699;28;20020;-73
2021/01/05 01:05:50;;;;;;;30.02;14.38;;;3.30;99.90;;;;;;5073158;28;20067;-72
2021/01/05 01:08:17;;;;;;;31.65;15.65;;;3.20;99.90;;;;;;5059933;28;20049;-73
2021/01/05 01:10:43;;;;;;;33.33;16.00;;;3.20;99.90;;;;;;5051998;28;20025;-73
2021/01/05 01:13:09;;;;;;;31.80;15.20;;;3.10;99.90;;;;;;5062392;28;20496;-73
2021/01/05 01:15:35;;;;;;;29.70;15.90;;;3.10;99.90;;;;;;5072788;28;20046;-73
2021/01/05 01:18:03;;;;;;;30.80;16.45;;;3.20;99.90;;;;;;5060408;28;20033;-72
2021/01/05 01:20:29;;;;;;;30.73;15.85;;;3.10;99.90;;;;;;5052834;28;20029;-73
2021/01/05 01:22:54;;;;;;;36.92;17.40;;;3.10;99.90;;;;;;5051782;28;20025;-72
2021/01/05 01:25:20;;;;;;;33.95;17.90;;;3.00;99.90;;;;;;5052854;28;20047;-72
2021/01/05 01:27:46;;;;;;;31.33;16.55;;;3.00;99.90;;;;;;5053123;28;20070;-72
2021/01/05 01:30:12;;;;;;;35.33;16.30;;;3.00;99.90;;;;;;5053226;28;20025;-72
2021/01/05 01:32:38;;;;;;;40.28;18.63;;;3.00;99.90;;;;;;5058277;28;20025;-73
2021/01/05 01:35:05;;;;;;;33.15;16.52;;;3.00;99.90;;;;;;5073096;28;20025;-72
2021/01/05 01:37:31;;;;;;;39.00;17.25;;;3.00;99.90;;;;;;5068006;28;20029;-72
2021/01/05 01:39:56;;;;;;;32.83;15.40;;;3.00;99.90;;;;;;5072554;28;20392;-72
2021/01/05 01:42:22;;;;;;;41.30;16.50;;;3.00;99.90;;;;;;5065473;28;20041;-73
2021/01/05 01:44:49;;;;;;;36.65;17.38;;;3.00;99.90;;;;;;5052602;28;20021;-72
2021/01/05 01:47:27;;;;;;;38.15;18.42;;;3.00;99.90;;;;;;5051432;28;20135;-72
2021/01/05 01:50:00;;;;;;;35.30;17.95;;;3.00;99.90;;;;;;5052931;28;20381;-72
2021/01/05 01:52:52;;;;;;;35.63;16.85;;;3.00;99.90;;;;;;5052449;28;20039;-72
2021/01/05 01:55:49;;;;;;;36.42;16.73;;;3.00;99.90;;;;;;5052289;28;20056;-71
2021/01/05 01:58:36;;;;;;;35.97;16.40;;;3.00;99.90;;;;;;5063136;28;20058;-72
2021/01/05 02:01:16;;;;;;;36.22;17.08;;;3.00;99.90;;;;;;5072002;28;20021;-72
2021/01/05 02:04:16;;;;;;;36.83;17.77;;;3.10;99.90;;;;;;5053508;28;20497;-72
2021/01/05 02:07:10;;;;;;;36.03;17.33;;;3.10;99.90;;;;;;5051291;28;20055;-72
2021/01/05 02:09:56;;;;;;;42.47;18.10;;;3.10;99.90;;;;;;5052362;28;20063;-72
2021/01/05 02:12:53;;;;;;;37.38;16.80;;;3.10;99.90;;;;;;5051827;28;20036;-72
2021/01/05 02:15:38;;;;;;;37.40;16.70;;;3.10;99.90;;;;;;5052302;28;20033;-72
2021/01/05 02:18:32;;;;;;;39.17;17.08;;;3.20;99.90;;;;;;5061481;28;20431;-69
2021/01/05 02:21:05;;;;;;;31.27;17.00;;;3.20;99.90;;;;;;5071153;28;20032;-69
2021/01/05 02:23:42;;;;;;;39.03;17.23;;;3.10;99.90;;;;;;5069363;28;20068;-69
2021/01/05 02:26:14;;;;;;;32.60;16.67;;;3.10;99.90;;;;;;5071369;28;20039;-68
2021/01/05 02:28:48;;;;;;;35.58;18.20;;;3.10;99.90;;;;;;5061300;28;20025;-69
2021/01/05 02:31:41;;;;;;;37.50;18.25;;;3.10;99.90;;;;;;5071335;28;20032;-69
2021/01/05 02:34:40;;;;;;;34.45;16.75;;;3.10;99.90;;;;;;5069849;28;20028;-69
2021/01/05 02:37:25;;;;;;;36.58;16.63;;;3.00;99.90;;;;;;5053948;28;20032;-69
2021/01/05 02:40:18;;;;;;;35.55;16.63;;;3.00;99.90;;;;;;5070652;28;20032;-70
2021/01/05 02:43:14;;;;;;;32.47;15.18;;;3.00;99.90;;;;;;5051182;28;20052;-70
2021/01/05 02:46:07;;;;;;;34.67;15.65;;;3.10;99.90;;;;;;5051514;28;20060;-70
2021/01/05 02:48:42;;;;;;;35.72;15.90;;;3.10;99.90;;;;;;5064742;28;20028;-70
2021/01/05 02:51:32;;;;;;;25.90;12.57;;;3.10;99.90;;;;;;5070677;28;20025;-70
2021/01/05 02:54:31;;;;;;;34.30;16.33;;;3.20;99.90;;;;;;5051319;28;20045;-70
2021/01/05 02:57:21;;;;;;;35.47;16.95;;;3.20;99.90;;;;;;5051149;28;20037;-70
2021/01/05 03:00:35;;;;;;;29.70;16.55;;;3.20;99.90;;;;;;5050134;28;20043;-70
2021/01/05 03:03:35;;;;;;;31.83;15.93;;;3.10;99.90;;;;;;5035735;28;20056;-70
2021/01/05 03:06:28;;;;;;;31.73;15.98;;;3.20;99.90;;;;;;5050758;28;20036;-70
2021/01/05 03:08:59;;;;;;;28.58;15.50;;;3.20;99.90;;;;;;5067129;28;20060;-70
2021/01/05 03:11:41;;;;;;;33.45;15.93;;;3.20;99.90;;;;;;5050479;28;20051;-69
2021/01/05 03:14:31;;;;;;;34.97;15.60;;;3.20;99.90;;;;;;5050797;28;20036;-69
2021/01/05 03:17:09;;;;;;;29.98;16.23;;;3.20;99.90;;;;;;5061850;28;20162;-70
2021/01/05 03:20:01;;;;;;;32.72;15.32;;;3.20;99.90;;;;;;5049394;28;20497;-69
2021/01/05 03:22:30;;;;;;;27.65;14.30;;;3.10;99.90;;;;;;5055405;28;20044;-70
2021/01/05 03:24:58;;;;;;;26.95;14.90;;;3.10;99.90;;;;;;5070367;28;20024;-70
2021/01/05 03:27:24;;;;;;;28.92;15.23;;;3.10;99.90;;;;;;5065480;28;20028;-70
2021/01/05 03:30:20;;;;;;;30.75;16.23;;;3.10;99.90;;;;;;5067286;28;20533;-70
2021/01/05 03:32:46;;;;;;;27.08;15.50;;;3.10;99.90;;;;;;5058131;28;20029;-70
2021/01/05 03:35:11;;;;;;;29.42;14.55;;;3.10;99.90;;;;;;5070337;28;20036;-69
2021/01/05 03:37:37;;;;;;;29.27;15.20;;;3.10;99.90;;;;;;5062926;28;20052;-69
2021/01/05 03:40:03;;;;;;;27.50;14.73;;;3.10;99.90;;;;;;5050908;28;20120;-69
2021/01/05 03:42:29;;;;;;;31.65;15.95;;;3.10;99.90;;;;;;5050908;28;20048;-69
2021/01/05 03:44:54;;;;;;;29.55;15.40;;;3.10;99.90;;;;;;5050553;28;20534;-69
2021/01/05 03:47:20;;;;;;;26.88;15.18;;;3.10;99.90;;;;;;5054257;28;20017;-70
2021/01/05 03:49:45;;;;;;;33.83;16.50;;;3.10;99.90;;;;;;5069952;28;20029;-70
2021/01/05 03:52:11;;;;;;;27.15;15.00;;;3.10;99.90;;;;;;5067405;28;20430;-70
2021/01/05 03:54:36;;;;;;;28.73;14.50;;;3.20;99.90;;;;;;5069155;28;20052;-70
2021/01/05 03:57:02;;;;;;;30.38;16.65;;;3.20;99.90;;;;;;5054785;28;20068;-70
2021/01/05 03:59:27;;;;;;;25.23;13.25;;;3.20;99.90;;;;;;5069221;28;20302;-70
2021/01/05 04:01:54;;;;;;;24.92;13.88;;;3.20;99.90;;;;;;5068722;28;20037;-70
2021/01/05 04:04:20;;;;;;;30.50;15.10;;;3.20;99.90;;;;;;5065364;28;20024;-70
2021/01/05 04:06:46;;;;;;;24.40;12.95;;;3.20;99.90;;;;;;5059670;28;20564;-70
2021/01/05 04:09:12;;;;;;;29.00;15.90;;;3.30;99.90;;;;;;5050109;28;20481;-70
2021/01/05 04:11:38;;;;;;;28.90;14.73;;;3.20;99.90;;;;;;5050295;28;20420;-70
2021/01/05 04:14:04;;;;;;;28.40;14.43;;;3.20;99.90;;;;;;5068143;28;20029;-70
2021/01/05 04:16:32;;;;;;;28.40;14.48;;;3.20;99.90;;;;;;5068454;28;20394;-70
2021/01/05 04:18:58;;;;;;;30.23;16.13;;;3.20;99.90;;;;;;5051068;28;20039;-70
2021/01/05 04:21:23;;;;;;;25.52;13.73;;;3.20;99.90;;;;;;5057215;28;20037;-70
2021/01/05 04:23:49;;;;;;;28.45;13.88;;;3.20;99.90;;;;;;5071761;28;20047;-71
2021/01/05 04:26:14;;;;;;;27.17;13.43;;;3.20;99.90;;;;;;5073116;28;20484;-71
2021/01/05 04:28:40;;;;;;;26.65;12.65;;;3.20;99.90;;;;;;5067948;28;20070;-71
2021/01/05 04:31:05;;;;;;;27.40;14.52;;;3.30;99.90;;;;;;5073242;28;20021;-71
2021/01/05 04:33:31;;;;;;;30.55;15.48;;;3.20;99.90;;;;;;5058483;28;20112;-71
2021/01/05 04:35:57;;;;;;;28.45;14.35;;;3.20;99.90;;;;;;5053968;28;20052;-71
2021/01/05 04:38:22;;;;;;;25.73;13.35;;;3.20;99.90;;;;;;5065912;28;20024;-71
2021/01/05 04:40:48;;;;;;;29.75;14.50;;;3.10;99.90;;;;;;5071535;28;20366;-71
2021/01/05 04:43:31;;;;;;;22.88;12.73;;;3.10;99.90;;;;;;5059817;28;20060;-71
2021/01/05 04:46:20;;;;;;;28.58;15.68;;;3.10;99.90;;;;;;5054008;28;20025;-71
2021/01/05 04:48:52;;;;;;;30.80;15.73;;;3.10;99.90;;;;;;5068488;28;20038;-71
2021/01/05 04:51:27;;;;;;;26.70;11.93;;;3.00;99.90;;;;;;5055733;28;20059;-71
2021/01/05 04:54:08;;;;;;;24.60;13.23;;;3.10;99.90;;;;;;5069891;28;20040;-71
2021/01/05 04:57:02;;;;;;;26.52;13.90;;;3.00;99.90;;;;;;5058674;28;20037;-70
2021/01/05 04:59:40;;;;;;;25.58;12.85;;;3.10;99.90;;;;;;5053524;28;20386;-71
2021/01/05 05:02:20;;;;;;;22.98;11.82;;;3.10;99.90;;;;;;5053828;28;20040;-71
2021/01/05 05:04:56;;;;;;;27.60;13.77;;;3.10;99.90;;;;;;5053708;28;20268;-69
2021/01/05 05:07:37;;;;;;;25.00;11.82;;;3.00;99.90;;;;;;5057418;28;20029;-70
2021/01/05 05:10:10;;;;;;;24.45;12.20;;;3.00;99.90;;;;;;5071428;28;20033;-70
2021/01/05 05:12:48;;;;;;;22.05;13.25;;;3.00;99.90;;;;;;5071145;28;20028;-70
2021/01/05 05:15:46;;;;;;;23.85;11.45;;;3.00;99.90;;;;;;5059767;28;20024;-70
2021/01/05 05:18:26;;;;;;;20.30;10.82;;;3.00;99.90;;;;;;5050913;28;20064;-70
2021/01/05 05:21:27;;;;;;;22.95;12.93;;;2.90;99.90;;;;;;5054984;28;20074;-72
2021/01/05 05:24:04;;;;;;;23.58;12.38;;;3.00;99.90;;;;;;5068847;28;20033;-71
2021/01/05 05:26:38;;;;;;;20.08;11.60;;;3.00;99.90;;;;;;5072343;28;20447;-70
2021/01/05 05:29:34;;;;;;;17.45;9.63;;;3.00;99.90;;;;;;5056547;28;20028;-72
2021/01/05 05:32:03;;;;;;;20.85;11.13;;;3.00;99.90;;;;;;5053569;28;20330;-70
2021/01/05 05:34:52;;;;;;;22.67;12.10;;;3.00;99.90;;;;;;5062161;28;20048;-70
2021/01/05 05:37:38;;;;;;;20.05;12.20;;;3.10;99.90;;;;;;5055195;28;20024;-71
2021/01/05 05:40:14;;;;;;;23.23;11.93;;;3.10;99.90;;;;;;5058603;28;20033;-72
2021/01/05 05:43:04;;;;;;;22.90;11.57;;;3.10;99.90;;;;;;5050829;28;20041;-72
2021/01/05 05:45:35;;;;;;;20.92;11.18;;;3.10;99.90;;;;;;5053325;28;20025;-71
2021/01/05 05:48:18;;;;;;;21.45;12.52;;;3.10;99.90;;;;;;5055740;28;20057;-71
2021/01/05 05:51:09;;;;;;;19.80;11.02;;;3.10;99.90;;;;;;5063470;28;20036;-71
2021/01/05 05:53:44;;;;;;;18.63;11.40;;;3.10;99.90;;;;;;5064993;28;20053;-71
2021/01/05 05:56:16;;;;;;;20.23;11.07;;;3.10;99.90;;;;;;5072499;28;20460;-71
2021/01/05 05:58:55;;;;;;;18.77;11.60;;;3.10;99.90;;;;;;5061740;28;20037;-71
2021/01/05 06:01:28;;;;;;;23.23;12.70;;;3.10;99.90;;;;;;5051278;28;20457;-71
2021/01/05 06:03:56;;;;;;;18.90;10.75;;;3.10;99.90;;;;;;5052110;28;20017;-71
2021/01/05 06:06:23;;;;;;;17.65;10.50;;;3.10;99.90;;;;;;5052288;28;20434;-71
2021/01/05 06:08:48;;;;;;;19.23;12.25;;;3.10;99.90;;;;;;5067526;28;20036;-71
2021/01/05 06:11:14;;;;;;;20.92;11.32;;;3.10;99.90;;;;;;5072236;28;20449;-71
2021/01/05 06:13:39;;;;;;;17.15;10.40;;;3.10;99.90;;;;;;5055720;28;20029;-72
2021/01/05 06:16:05;;;;;;;17.60;9.60;;;3.10;99.90;;;;;;5052020;28;20041;-72
2021/01/05 06:18:30;;;;;;;18.27;10.30;;;3.10;99.90;;;;;;5063092;28;20499;-71
2021/01/05 06:20:56;;;;;;;19.67;10.15;;;3.10;99.90;;;;;;5048779;28;20185;-72
2021/01/05 06:23:21;;;;;;;19.25;10.20;;;3.10;99.90;;;;;;5062011;28;20458;-72
2021/01/05 06:25:47;;;;;;;19.00;10.40;;;3.20;99.90;;;;;;5056095;28;20115;-72
2021/01/05 06:28:13;;;;;;;16.00;9.68;;;3.20;99.90;;;;;;5060366;28;20025;-72
2021/01/05 06:30:39;;;;;;;15.88;9.55;;;3.20;99.90;;;;;;5071887;28;20025;-72
2021/01/05 06:33:05;;;;;;;18.65;10.13;;;3.20;99.90;;;;;;5060421;28;20033;-72
2021/01/05 06:35:30;;;;;;;19.35;10.65;;;3.30;99.90;;;;;;5054788;28;20496;-71
2021/01/05 06:37:56;;;;;;;19.02;10.88;;;3.20;99.90;;;;;;5050453;28;20104;-72
2021/01/05 06:40:26;;;;;;;19.20;11.18;;;3.20;99.90;;;;;;5051664;28;20018;-71
2021/01/05 06:42:52;;;;;;;21.75;11.48;;;3.20;99.90;;;;;;5059438;28;20039;-72
2021/01/05 06:45:32;;;;;;;21.42;10.73;;;3.20;99.90;;;;;;5065242;28;20143;-72
2021/01/05 06:47:59;;;;;;;21.33;13.00;;;3.20;99.90;;;;;;5056721;28;20028;-71
2021/01/05 06:50:28;;;;;;;22.10;12.18;;;3.20;99.90;;;;;;5051555;28;20444;-72
2021/01/05 06:52:53;;;;;;;21.98;12.60;;;3.20;99.90;;;;;;5069048;28;20021;-72
2021/01/05 06:55:19;;;;;;;17.63;10.73;;;3.20;99.90;;;;;;5071459;28;20082;-72
2021/01/05 06:57:46;;;;;;;21.45;11.82;;;3.10;99.90;;;;;;5053385;28;20028;-72
2021/01/05 07:00:21;;;;;;;20.77;11.77;;;3.20;99.90;;;;;;5051397;28;20056;-72
2021/01/05 07:02:47;;;;;;;26.58;13.57;;;3.10;99.90;;;;;;5057983;28;20043;-72
2021/01/05 07:05:13;;;;;;;27.83;13.43;;;3.10;99.90;;;;;;5071636;28;20479;-72
2021/01/05 07:07:39;;;;;;;23.67;12.13;;;3.10;99.90;;;;;;5061894;28;20040;-72
2021/01/05 07:10:06;;;;;;;25.35;12.30;;;3.10;99.90;;;;;;5051817;28;20021;-72
2021/01/05 07:12:32;;;;;;;24.10;12.27;;;3.10;99.90;;;;;;5055208;28;20021;-70
2021/01/05 07:14:59;;;;;;;25.58;13.05;;;3.30;99.90;;;;;;5071303;28;20032;-73
2021/01/05 07:17:24;;;;;;;23.13;11.73;;;3.30;99.90;;;;;;5067965;28;20411;-73
2021/01/05 07:19:50;;;;;;;26.83;13.13;;;3.30;99.90;;;;;;5071463;28;20028;-71
2021/01/05 07:22:15;;;;;;;24.95;13.48;;;3.30;99.90;;;;;;5065387;28;20040;-70
2021/01/05 07:24:40;;;;;;;29.58;15.23;;;3.20;99.90;;;;;;5049259;28;20028;-71
2021/01/05 07:27:06;;;;;;;27.48;13.38;;;3.20;99.90;;;;;;5059223;28;20696;-70
2021/01/05 07:29:31;;;;;;;29.73;14.85;;;3.30;99.90;;;;;;5068181;28;20009;-71
2021/01/05 07:31:57;;;;;;;27.05;13.75;;;3.20;99.90;;;;;;5056017;28;20229;-71
2021/01/05 07:34:22;;;;;;;31.02;14.73;;;3.20;99.90;;;;;;5066356;28;20543;-71
2021/01/05 07:36:54;;;;;;;28.00;15.32;;;3.20;99.90;;;;;;5050389;28;20060;-70
2021/01/05 07:39:26;;;;;;;27.25;13.68;;;3.10;99.90;;;;;;5055075;28;20021;-71
2021/01/05 07:42:09;;;;;;;29.58;15.30;;;3.20;99.90;;;;;;5066590;28;20067;-70
2021/01/05 07:44:35;;;;;;;31.33;15.55;;;3.20;99.90;;;;;;5051208;28;20036;-70
2021/01/05 07:47:01;;;;;;;27.25;15.00;;;3.10;99.90;;;;;;5051022;28;20037;-70
2021/01/05 07:49:26;;;;;;;32.65;14.98;;;3.20;99.90;;;;;;5052987;28;20017;-70
2021/01/05 07:51:52;;;;;;;33.17;15.80;;;3.20;99.90;;;;;;5052465;28;20436;-69
2021/01/05 07:54:17;;;;;;;34.08;17.83;;;3.20;99.90;;;;;;5050815;28;20045;-70
2021/01/05 07:56:44;;;;;;;31.77;15.25;;;3.20;99.90;;;;;;5056945;28;20406;-71
2021/01/05 07:59:10;;;;;;;31.10;15.48;;;3.10;99.90;;;;;;5054601;28;20032;-70
2021/01/05 08:01:35;;;;;;;30.50;15.73;;;3.20;99.90;;;;;;5064684;28;20501;-69
2021/01/05 08:04:01;;;;;;;31.70;15.15;;;3.20;99.90;;;;;;5065743;28;20424;-69
2021/01/05 08:06:26;;;;;;;32.17;15.98;;;3.20;99.90;;;;;;5054508;28;20036;-68
2021/01/05 08:08:52;;;;;;;28.25;14.95;;;3.20;99.90;;;;;;5067457;28;20049;-68
2021/01/05 08:11:17;;;;;;;44.80;16.27;;;3.20;99.90;;;;;;5055435;28;20036;-69
2021/01/05 08:13:43;;;;;;;30.30;13.75;;;3.20;99.90;;;;;;5054262;28;20013;-68
2021/01/05 08:16:12;;;;;;;29.85;14.57;;;3.20;99.90;;;;;;5055034;28;20064;-69
2021/01/05 08:18:38;;;;;;;32.38;15.88;;;3.20;99.90;;;;;;5062426;28;20040;-68
2021/01/05 08:21:04;;;;;;;32.85;15.50;;;3.20;99.90;;;;;;5053944;28;20093;-69
2021/01/05 08:23:30;;;;;;;31.55;14.75;;;3.20;99.90;;;;;;5053682;28;20033;-69
2021/01/05 08:25:55;;;;;;;33.33;17.65;;;3.30;99.90;;;;;;5067396;28;20024;-68
2021/01/05 08:28:21;;;;;;;32.78;15.82;;;3.30;99.90;;;;;;5062997;28;20881;-69
2021/01/05 08:30:46;;;;;;;28.70;14.75;;;3.30;99.90;;;;;;5063569;28;20032;-68
2021/01/05 08:33:13;;;;;;;33.53;15.52;;;3.30;99.90;;;;;;5065189;28;20107;-69
2021/01/05 08:35:39;;;;;;;29.38;15.13;;;3.30;99.90;;;;;;5058769;28;20413;-68
2021/01/05 08:38:05;;;;;;;35.33;17.35;;;3.30;99.90;;;;;;5053615;28;20045;-68
2021/01/05 08:40:33;;;;;;;31.52;16.08;;;3.30;99.90;;;;;;5057272;28;20036;-68
2021/01/05 08:43:01;;;;;;;35.22;16.27;;;3.30;99.90;;;;;;5063166;28;20083;-69
2021/01/05 08:45:26;;;;;;;33.22;15.90;;;3.40;99.90;;;;;;5053159;28;20051;-69
2021/01/05 08:47:52;;;;;;;34.88;15.85;;;3.40;99.90;;;;;;5053501;28;20016;-69
2021/01/05 08:50:28;;;;;;;37.78;16.42;;;3.40;99.90;;;;;;5053771;28;20111;-69
2021/01/05 08:52:54;;;;;;;31.23;14.18;;;3.40;99.90;;;;;;5060268;28;20082;-69
2021/01/05 08:55:19;;;;;;;36.80;16.52;;;3.40;99.90;;;;;;5056120;28;20037;-69
2021/01/05 08:57:44;;;;;;;34.85;16.95;;;3.50;99.90;;;;;;5059464;28;20107;-69
2021/01/05 09:00:13;;;;;;;34.95;17.92;;;3.50;99.90;;;;;;5073224;28;20077;-68
2021/01/05 09:02:38;;;;;;;34.33;17.33;;;3.50;99.90;;;;;;5069408;28;20047;-69
2021/01/05 09:05:04;;;;;;;29.00;15.68;;;3.50;99.90;;;;;;5073656;28;20643;-69
2021/01/05 09:07:30;;;;;;;29.02;13.90;;;3.40;99.90;;;;;;5053600;28;20120;-68
2021/01/05 09:09:55;;;;;;;35.45;15.65;;;3.40;99.90;;;;;;5052047;28;20025;-68
2021/01/05 09:12:21;;;;;;;32.85;16.30;;;3.50;99.90;;;;;;5052040;28;20381;-68
2021/01/05 09:14:46;;;;;;;30.40;14.63;;;3.50;99.90;;;;;;5059704;28;20020;-69
2021/01/05 09:17:12;;;;;;;29.42;15.13;;;3.40;99.90;;;;;;5063616;28;20100;-67
2021/01/05 09:19:39;;;;;;;29.33;14.63;;;3.50;99.90;;;;;;5054975;28;20398;-69
2021/01/05 09:22:04;;;;;;;28.65;16.13;;;3.50;99.90;;;;;;5053746;28;20037;-68
2021/01/05 09:24:30;;;;;;;33.17;16.00;;;3.60;99.90;;;;;;5070726;28;20035;-70
2021/01/05 09:26:56;;;;;;;34.97;16.90;;;3.50;99.90;;;;;;5069989;28;20047;-69
2021/01/05 09:29:23;;;;;;;26.77;14.88;;;3.50;99.90;;;;;;5055342;28;20025;-69
2021/01/05 09:31:50;;;;;;;27.95;14.23;;;3.60;99.90;;;;;;5052347;28;20040;-69
2021/01/05 09:34:18;;;;;;;30.17;14.52;;;3.60;99.90;;;;;;5061608;28;20057;-69
2021/01/05 09:36:44;;;;;;;25.98;14.73;;;3.60;99.90;;;;;;5051669;28;20017;-68
2021/01/05 09:39:13;;;;;;;26.90;15.23;;;3.70;99.90;;;;;;5068213;28;20542;-69
2021/01/05 09:41:45;;;;;;;27.55;13.93;;;3.70;99.90;;;;;;5064109;28;20032;-69
2021/01/05 09:44:12;;;;;;;29.15;14.13;;;3.70;99.90;;;;;;5053119;28;20493;-69
2021/01/05 09:46:41;;;;;;;23.02;13.88;;;3.80;99.90;;;;;;5053006;28;20108;-71
2021/01/05 09:49:11;;;;;;;26.27;14.15;;;3.80;99.90;;;;;;5059504;28;20078;-71
2021/01/05 09:51:37;;;;;;;28.88;14.60;;;3.80;99.90;;;;;;5050723;28;20025;-71
2021/01/05 09:54:03;;;;;;;26.42;15.63;;;3.80;99.90;;;;;;5070104;28;20052;-70
2021/01/05 09:56:28;;;;;;;27.52;14.25;;;3.80;99.90;;;;;;5064555;28;20527;-73
2021/01/05 09:58:54;;;;;;;29.75;15.43;;;3.70;99.90;;;;;;5071401;28;20100;-73
2021/01/05 10:01:25;;;;;;;32.80;16.90;;;3.70;99.90;;;;;;5057924;28;20029;-72
2021/01/05 10:03:50;;;;;;;30.73;16.17;;;3.60;99.90;;;;;;5056917;28;20036;-73
2021/01/05 10:06:16;;;;;;;28.45;13.93;;;3.60;99.90;;;;;;5065129;28;20381;-73
2021/01/05 10:08:41;;;;;;;33.60;16.20;;;3.60;99.90;;;;;;5068326;28;20036;-73
2021/01/05 10:11:07;;;;;;;30.85;15.82;;;3.60;99.90;;;;;;5071431;28;20115;-73
2021/01/05 10:13:32;;;;;;;30.48;15.88;;;3.60;99.90;;;;;;5066627;28;20473;-73
2021/01/05 10:15:58;;;;;;;31.80;15.90;;;3.70;99.90;;;;;;5071302;28;20044;-73
2021/01/05 10:18:23;;;;;;;29.23;15.75;;;3.60;99.90;;;;;;5056240;28;20394;-73
2021/01/05 10:20:49;;;;;;;31.90;14.90;;;3.60;99.90;;;;;;5052555;28;20128;-73
2021/01/05 10:23:15;;;;;;;29.23;14.70;;;3.60;99.90;;;;;;5051726;28;20029;-73
2021/01/05 10:25:40;;;;;;;30.15;15.52;;;3.60;99.90;;;;;;5052146;28;20106;-71
2021/01/05 10:28:06;;;;;;;29.85;14.40;;;3.60;99.90;;;;;;5056392;28;20109;-72
2021/01/05 10:30:31;;;;;;;30.08;14.00;;;3.60;99.90;;;;;;5050395;28;20017;-71
2021/01/05 10:32:57;;;;;;;33.10;15.65;;;3.60;99.90;;;;;;5054403;28;20031;-73
2021/01/05 10:35:23;;;;;;;29.35;15.38;;;3.60;99.90;;;;;;5065594;28;20021;-73
2021/01/05 10:37:49;;;;;;;31.98;15.10;;;3.70;99.90;;;;;;5063917;28;20111;-73
2021/01/05 10:40:18;;;;;;;31.35;14.35;;;3.70;99.90;;;;;;5066095;28;20044;-73
2021/01/05 10:42:46;;;;;;;27.65;13.95;;;3.70;99.90;;;;;;5067129;28;20041;-74
2021/01/05 10:45:14;;;;;;;26.15;13.77;;;3.70;99.90;;;;;;5052252;28;20033;-74
2021/01/05 10:47:40;;;;;;;30.02;14.85;;;3.80;99.90;;;;;;5056904;28;20443;-76
2021/01/05 10:50:12;;;;;;;29.70;14.65;;;3.70;99.90;;;;;;5056520;28;20029;-75
2021/01/05 10:52:37;;;;;;;28.13;14.90;;;3.70;99.90;;;;;;5063608;28;20033;-76
2021/01/05 10:55:04;;;;;;;25.38;13.48;;;3.80;99.90;;;;;;5051528;28;20451;-76
2021/01/05 10:57:30;;;;;;;23.52;12.40;;;3.80;99.90;;;;;;5052447;28;20085;-77
2021/01/05 10:59:55;;;;;;;30.02;14.52;;;3.70;99.90;;;;;;5088470;28;20060;-76
2021/01/05 11:02:21;;;;;;;28.23;13.90;;;3.70;99.90;;;;;;5070659;28;20448;-71
2021/01/05 11:04:46;;;;;;;29.08;14.57;;;3.70;99.90;;;;;;5071115;28;20025;-74
2021/01/05 11:07:14;;;;;;;31.17;16.88;;;3.70;99.90;;;;;;5056262;28;20493;-74
2021/01/05 11:09:40;;;;;;;31.90;14.82;;;3.70;99.90;;;;;;5051641;28;20112;-75
2021/01/05 11:12:18;;;;;;;26.17;14.38;;;3.70;99.90;;;;;;5057379;28;20040;-74
2021/01/05 11:14:44;;;;;;;29.05;16.30;;;3.60;99.90;;;;;;5070379;28;20037;-75
2021/01/05 11:17:09;;;;;;;30.17;14.57;;;3.60;99.90;;;;;;5068283;28;20559;-74
2021/01/05 11:19:40;;;;;;;27.20;13.40;;;3.60;99.90;;;;;;5070449;28;20039;-74
2021/01/05 11:22:07;;;;;;;24.48;13.82;;;3.70;99.90;;;;;;5052966;28;20079;-75
2021/01/05 11:24:37;;;;;;;29.60;15.02;;;3.70;99.90;;;;;;5070116;28;20029;-74
2021/01/05 11:27:05;;;;;;;30.17;15.90;;;3.70;99.90;;;;;;5058757;28;20032;-73
2021/01/05 11:29:31;;;;;;;30.77;15.18;;;3.80;99.90;;;;;;5056848;28;20381;-75
2021/01/05 11:32:03;;;;;;;31.63;15.88;;;3.80;99.90;;;;;;5060170;28;20021;-73
2021/01/05 11:34:30;;;;;;;28.25;14.35;;;3.80;99.90;;;;;;5058762;28;20028;-75
2021/01/05 11:37:08;;;;;;;26.90;13.93;;;3.80;99.90;;;;;;5057875;28;20045;-74
2021/01/05 11:39:34;;;;;;;25.02;13.70;;;3.80;99.90;;;;;;5062276;28;20107;-73
2021/01/05 11:42:02;;;;;;;28.65;15.02;;;3.80;99.90;;;;;;5062361;28;20040;-74
2021/01/05 11:44:28;;;;;;;32.15;14.55;;;3.80;99.90;;;;;;5054704;28;20024;-74
2021/01/05 11:46:54;;;;;;;28.30;14.38;;;3.80;99.90;;;;;;5062168;28;20484;-73
2021/01/05 11:49:20;;;;;;;29.20;14.27;;;3.80;99.90;;;;;;5055135;28;20163;-74
2021/01/05 11:51:49;;;;;;;26.80;14.25;;;3.80;99.90;;;;;;5060896;28;20012;-71
2021/01/05 11:54:14;;;;;;;26.83;14.63;;;3.80;99.90;;;;;;5055763;28;20045;-75
2021/01/05 11:56:40;;;;;;;31.10;14.90;;;3.70;99.90;;;;;;5055067;28;20086;-75
2021/01/05 11:59:05;;;;;;;25.15;13.23;;;3.60;99.90;;;;;;5062029;28;20036;-74
2021/01/05 12:01:36;;;;;;;28.65;13.80;;;3.70;99.90;;;;;;5070579;28;20071;-75
2021/01/05 12:04:03;;;;;;;28.10;15.23;;;3.70;99.90;;;;;;5069615;28;20036;-75
2021/01/05 12:06:29;;;;;;;38.53;15.50;;;3.70;99.90;;;;;;5072396;28;20032;-74
2021/01/05 12:08:54;;;;;;;30.23;15.60;;;3.70;99.90;;;;;;5053224;28;20583;-74
2021/01/05 12:11:25;;;;;;;29.08;14.75;;;3.70;99.90;;;;;;5068265;28;20024;-75
2021/01/05 12:13:52;;;;;;;27.25;14.07;;;3.70;99.90;;;;;;5056658;28;20028;-74
2021/01/05 12:16:26;;;;;;;26.48;12.75;;;3.60;99.90;;;;;;5066900;28;20103;-75
2021/01/05 12:18:53;;;;;;;31.05;13.25;;;3.70;99.90;;;;;;5072553;28;20600;-74
2021/01/05 12:21:32;;;;;;;32.28;15.52;;;3.70;99.90;;;;;;5070976;28;20131;-74
2021/01/05 12:23:58;;;;;;;30.52;14.63;;;3.80;99.90;;;;;;5072621;28;20422;-74
2021/01/05 12:26:36;;;;;;;28.75;14.27;;;3.70;99.90;;;;;;5058523;28;20031;-74
2021/01/05 12:29:05;;;;;;;27.90;14.27;;;3.70;99.90;;;;;;5072173;28;20114;-75
2021/01/05 12:31:39;;;;;;;26.63;13.57;;;3.80;99.90;;;;;;5059620;28;20033;-74
2021/01/05 12:34:04;;;;;;;30.65;14.40;;;3.90;99.90;;;;;;5054266;28;20542;-74
2021/01/05 12:36:33;;;;;;;29.67;14.30;;;3.90;99.90;;;;;;5065951;28;20055;-75
2021/01/05 12:38:59;;;;;;;27.77;13.75;;;3.90;99.90;;;;;;5056016;28;20506;-75
2021/01/05 12:41:38;;;;;;;32.08;14.68;;;3.90;99.90;;;;;;5065928;28;20111;-74
2021/01/05 12:44:06;;;;;;;34.13;15.13;;;4.00;99.90;;;;;;5071286;28;20488;-74
2021/01/05 12:46:34;;;;;;;30.25;14.30;;;4.00;99.90;;;;;;5066722;28;20029;-75
2021/01/05 12:48:59;;;;;;;30.20;15.77;;;4.00;99.90;;;;;;5071702;28;20033;-75
2021/01/05 12:51:27;;;;;;;26.17;13.57;;;4.00;99.90;;;;;;5067144;28;20440;-75
2021/01/05 12:53:53;;;;;;;26.65;13.55;;;4.00;99.90;;;;;;5069681;28;20109;-75